Time;durP1;ratioP1;P1;durP2;ratioP2;P2;SDS_P1;SDS_P2;PMS_P1;PMS_P2;Temp;Humidity;BMP_temperature;BMP_pressure;BME280_temperature;BME280_humidity;BME280_pressure;Samples;Min_cycle;Max_cycle;Signal;HPM_P1;HPM_P2
2023/05/12 00:01:51;;;;;;;6.53;2.60;;;8.70;99.90;;;;;;4144464;28;20038;-61
2023/05/12 00:03:55;;;;;;;5.03;2.30;;;8.60;99.90;;;;;;4161864;28;20076;-61
2023/05/12 00:06:02;;;;;;;4.93;2.07;;;8.60;99.90;;;;;;4162531;28;20470;-59
2023/05/12 00:08:03;;;;;;;3.40;2.37;;;8.60;99.90;;;;;;4143693;28;20084;-66
2023/05/12 00:10:05;;;;;;;4.97;2.57;;;8.60;99.90;;;;;;4162398;28;20547;-61
2023/05/12 00:12:07;;;;;;;3.93;2.60;;;8.50;99.90;;;;;;4160678;28;20091;-61
2023/05/12 00:14:08;;;;;;;4.57;2.23;;;8.50;99.90;;;;;;4162439;28;20029;-60
2023/05/12 00:16:09;;;;;;;3.97;2.43;;;8.50;99.90;;;;;;4161228;28;20158;-61
2023/05/12 00:18:11;;;;;;;3.47;2.20;;;8.50;99.90;;;;;;4162002;28;20033;-68
2023/05/12 00:20:12;;;;;;;3.67;2.37;;;8.40;99.90;;;;;;4161631;28;20474;-61
2023/05/12 00:22:14;;;;;;;3.60;2.17;;;8.50;99.90;;;;;;4161632;28;20034;-65
2023/05/12 00:24:15;;;;;;;3.20;2.07;;;8.50;99.90;;;;;;4161913;28;20282;-68
2023/05/12 00:26:16;;;;;;;2.80;2.10;;;8.60;99.90;;;;;;4161181;28;20037;-70
2023/05/12 00:28:18;;;;;;;3.43;2.20;;;8.60;99.90;;;;;;4162296;28;20029;-67
2023/05/12 00:30:19;;;;;;;4.33;2.50;;;8.60;99.90;;;;;;4142967;28;20045;-68
2023/05/12 00:32:21;;;;;;;3.53;2.53;;;8.60;99.90;;;;;;4162416;28;20017;-69
2023/05/12 00:34:22;;;;;;;4.23;2.50;;;8.60;99.90;;;;;;4160653;28;20050;-61
2023/05/12 00:36:23;;;;;;;2.20;2.00;;;8.70;99.90;;;;;;4162019;28;20442;-61
2023/05/12 00:38:25;;;;;;;2.67;1.93;;;8.60;99.90;;;;;;4161048;28;20022;-61
2023/05/12 00:40:26;;;;;;;2.50;2.27;;;8.70;99.90;;;;;;4162119;28;20363;-72
2023/05/12 00:42:27;;;;;;;5.00;1.93;;;8.60;99.90;;;;;;4160866;28;20025;-66
2023/05/12 00:44:28;;;;;;;3.43;1.90;;;8.70;99.90;;;;;;4162095;28;20033;-70
2023/05/12 00:46:30;;;;;;;6.17;2.87;;;8.60;99.90;;;;;;4161074;28;20067;-61
2023/05/12 00:48:32;;;;;;;3.43;2.10;;;8.60;99.90;;;;;;4161661;28;20408;-67
2023/05/12 00:50:33;;;;;;;4.37;2.60;;;8.60;99.90;;;;;;4161267;28;20084;-72
2023/05/12 00:52:35;;;;;;;8.83;2.50;;;8.50;99.90;;;;;;4160639;28;20087;-70
2023/05/12 00:54:38;;;;;;;4.03;2.73;;;8.60;99.90;;;;;;4160735;28;20034;-71
2023/05/12 00:56:40;;;;;;;3.90;2.73;;;8.60;99.90;;;;;;4160521;28;20459;-72
2023/05/12 00:58:41;;;;;;;3.67;2.40;;;8.60;99.90;;;;;;4161918;28;20044;-61
2023/05/12 01:00:42;;;;;;;3.33;2.17;;;8.60;99.90;;;;;;4160126;28;20084;-69
2023/05/12 01:02:44;;;;;;;7.10;2.97;;;8.50;99.90;;;;;;4161804;28;20038;-67
2023/05/12 01:04:46;;;;;;;3.73;2.83;;;8.50;99.90;;;;;;4161007;28;20037;-71
2023/05/12 01:06:58;;;;;;;5.40;2.23;;;8.50;99.90;;;;;;4161760;28;20079;-65
2023/05/12 01:09:00;;;;;;;4.27;2.57;;;8.50;99.90;;;;;;4160547;28;20037;-67
2023/05/12 01:11:01;;;;;;;6.33;2.63;;;8.50;99.90;;;;;;4161478;28;20091;-64
2023/05/12 01:13:02;;;;;;;4.50;2.97;;;8.40;99.90;;;;;;4159830;28;20033;-71
2023/05/12 01:15:03;;;;;;;6.60;2.60;;;8.40;99.90;;;;;;4161786;28;20464;-73
2023/05/12 01:17:10;;;;;;;3.47;2.23;;;8.40;99.90;;;;;;4160583;28;20033;-72
2023/05/12 01:19:40;;;;;;;3.57;2.50;;;8.40;99.90;;;;;;4161839;28;20026;-74
2023/05/12 01:21:41;;;;;;;6.47;2.60;;;8.40;99.90;;;;;;4160234;28;20738;-73
2023/05/12 01:23:50;;;;;;;5.43;2.67;;;8.40;99.90;;;;;;4161595;28;20037;-61
2023/05/12 01:25:53;;;;;;;8.40;2.80;;;8.40;99.90;;;;;;4160531;28;20500;-61
2023/05/12 01:27:54;;;;;;;3.77;2.30;;;8.30;99.90;;;;;;4161180;28;20046;-65
2023/05/12 01:29:59;;;;;;;4.30;2.47;;;8.30;99.90;;;;;;4160426;28;20068;-60
2023/05/12 01:32:01;;;;;;;3.50;2.30;;;8.30;99.90;;;;;;4161504;28;20079;-70
2023/05/12 01:34:02;;;;;;;6.13;2.77;;;8.30;99.90;;;;;;4160962;28;20437;-64
2023/05/12 01:36:04;;;;;;;6.10;2.60;;;8.30;99.90;;;;;;4161208;28;20075;-71
2023/05/12 01:38:05;;;;;;;4.90;2.30;;;8.30;99.90;;;;;;4160925;28;20022;-61
2023/05/12 01:40:07;;;;;;;6.60;2.30;;;8.20;99.90;;;;;;4160844;28;20030;-72
2023/05/12 01:42:08;;;;;;;3.53;2.20;;;8.20;99.90;;;;;;4160936;28;20030;-71
2023/05/12 01:44:09;;;;;;;4.23;3.00;;;8.20;99.90;;;;;;4160516;28;20084;-74
2023/05/12 01:46:10;;;;;;;4.03;2.83;;;8.20;99.90;;;;;;4161574;28;20072;-72
2023/05/12 01:48:11;;;;;;;4.07;2.83;;;8.20;99.90;;;;;;4160550;28;20041;-74
2023/05/12 01:50:12;;;;;;;5.27;2.83;;;8.20;99.90;;;;;;4161385;28;20042;-61
2023/05/12 01:52:14;;;;;;;3.00;2.60;;;8.20;99.90;;;;;;4160307;28;20041;-61
2023/05/12 01:54:15;;;;;;;6.33;2.63;;;8.20;99.90;;;;;;4161317;28;20033;-72
2023/05/12 01:56:16;;;;;;;6.17;2.47;;;8.20;99.90;;;;;;4160034;28;20474;-61
2023/05/12 01:58:19;;;;;;;4.33;2.90;;;8.10;99.90;;;;;;4161406;28;20079;-71
2023/05/12 02:00:20;;;;;;;5.67;3.17;;;8.10;99.90;;;;;;4160324;28;20025;-72
2023/05/12 02:02:21;;;;;;;3.77;2.97;;;8.10;99.90;;;;;;4161019;28;20456;-60
2023/05/12 02:04:22;;;;;;;5.60;2.50;;;8.10;99.90;;;;;;4160831;28;20486;-72
2023/05/12 02:06:27;;;;;;;4.37;2.33;;;8.20;99.90;;;;;;4160897;28;20068;-74
2023/05/12 02:08:28;;;;;;;3.47;2.77;;;8.20;99.90;;;;;;4160839;28;20037;-69
2023/05/12 02:10:29;;;;;;;4.83;2.67;;;8.20;99.90;;;;;;4162984;28;20099;-73
2023/05/12 02:12:30;;;;;;;3.00;2.63;;;8.20;99.90;;;;;;4163680;28;20022;-71
2023/05/12 02:14:31;;;;;;;3.63;2.30;;;8.20;99.90;;;;;;4163405;28;20056;-72
2023/05/12 02:16:32;;;;;;;4.93;2.27;;;8.20;99.90;;;;;;4163536;28;20049;-60
2023/05/12 02:18:34;;;;;;;3.80;2.50;;;8.20;99.90;;;;;;4162219;28;20047;-73
2023/05/12 02:20:35;;;;;;;5.17;2.40;;;8.20;99.90;;;;;;4164218;28;20079;-65
2023/05/12 02:22:36;;;;;;;4.50;2.77;;;8.20;99.90;;;;;;4162233;28;20037;-73
2023/05/12 02:24:37;;;;;;;4.90;2.47;;;8.20;99.90;;;;;;4164172;28;20071;-60
2023/05/12 02:26:38;;;;;;;6.87;2.83;;;8.20;99.90;;;;;;4162695;28;20429;-60
2023/05/12 02:28:40;;;;;;;7.97;2.80;;;8.20;99.90;;;;;;4164150;28;20076;-71
2023/05/12 02:30:47;;;;;;;4.30;2.37;;;8.20;99.90;;;;;;4162669;28;20049;-71
2023/05/12 02:32:48;;;;;;;5.33;3.03;;;8.30;99.90;;;;;;4163467;28;20107;-74
2023/05/12 02:34:50;;;;;;;6.03;3.00;;;8.30;99.90;;;;;;4163387;28;20431;-72
2023/05/12 02:36:51;;;;;;;4.53;3.03;;;8.20;99.90;;;;;;4163911;28;20025;-67
2023/05/12 02:38:52;;;;;;;4.00;3.00;;;8.30;99.90;;;;;;4163002;28;20465;-68
2023/05/12 02:40:53;;;;;;;4.87;3.40;;;8.30;99.90;;;;;;4162747;28;20033;-60
2023/05/12 02:42:55;;;;;;;4.40;3.13;;;8.30;99.90;;;;;;4162440;28;20033;-60
2023/05/12 02:44:56;;;;;;;4.33;3.03;;;8.40;99.90;;;;;;4162888;28;20033;-73
2023/05/12 02:46:57;;;;;;;6.30;3.77;;;8.30;99.90;;;;;;4163423;28;20026;-60
2023/05/12 02:48:58;;;;;;;9.90;3.87;;;8.40;99.90;;;;;;4161802;28;20037;-74
2023/05/12 02:50:59;;;;;;;4.90;3.03;;;8.40;99.90;;;;;;4163580;28;20081;-73
2023/05/12 02:53:01;;;;;;;5.80;3.20;;;8.40;99.90;;;;;;4162285;28;20473;-71
2023/05/12 02:55:02;;;;;;;6.33;4.10;;;8.40;99.90;;;;;;4146035;28;20033;-72
2023/05/12 02:57:04;;;;;;;7.43;3.57;;;8.40;99.90;;;;;;4162174;28;20420;-73
2023/05/12 02:59:05;;;;;;;9.87;4.60;;;8.40;99.90;;;;;;4163534;28;20427;-70
2023/05/12 03:01:06;;;;;;;4.33;3.30;;;8.50;99.90;;;;;;4161646;28;20046;-60
2023/05/12 03:03:08;;;;;;;3.40;2.90;;;8.60;99.90;;;;;;4163554;28;20038;-61
2023/05/12 03:05:09;;;;;;;6.13;2.83;;;8.70;99.90;;;;;;4144461;28;20042;-60
2023/05/12 03:07:10;;;;;;;3.87;3.03;;;8.80;99.90;;;;;;4163297;28;20033;-59
2023/05/12 03:09:11;;;;;;;6.63;3.70;;;8.90;99.90;;;;;;4161767;28;20464;-61
2023/05/12 03:11:13;;;;;;;7.50;3.10;;;9.00;99.90;;;;;;4162877;28;20034;-61
2023/05/12 03:13:14;;;;;;;7.47;3.20;;;9.00;99.90;;;;;;4162609;28;20428;-61
2023/05/12 03:15:15;;;;;;;6.53;3.00;;;9.00;99.90;;;;;;4161906;28;20065;-60
2023/05/12 03:17:16;;;;;;;6.33;2.93;;;9.00;99.90;;;;;;4162951;28;20090;-59
2023/05/12 03:19:18;;;;;;;6.10;3.27;;;9.10;99.90;;;;;;4161038;28;20087;-60
2023/05/12 03:21:19;;;;;;;3.00;2.67;;;9.10;99.90;;;;;;4162564;28;20099;-60
2023/05/12 03:23:20;;;;;;;5.23;3.03;;;9.10;99.90;;;;;;4161940;28;20130;-59
2023/05/12 03:25:21;;;;;;;5.57;2.40;;;9.10;99.90;;;;;;4162330;28;20091;-60
2023/05/12 03:27:22;;;;;;;9.43;2.80;;;9.00;99.90;;;;;;4161889;28;20025;-61
2023/05/12 03:29:24;;;;;;;4.90;2.30;;;9.10;99.90;;;;;;4163148;28;20468;-73
2023/05/12 03:31:25;;;;;;;8.80;4.77;;;9.10;99.90;;;;;;4161849;28;20095;-73
2023/05/12 03:33:26;;;;;;;7.80;3.53;;;9.10;99.90;;;;;;4163025;28;20026;-73
2023/05/12 03:35:27;;;;;;;6.80;4.37;;;9.10;99.90;;;;;;4161442;28;20087;-61
2023/05/12 03:37:29;;;;;;;7.80;5.17;;;9.10;99.90;;;;;;4163035;28;20025;-73
2023/05/12 03:39:30;;;;;;;8.50;4.83;;;9.10;99.90;;;;;;4161168;28;20030;-72
2023/05/12 03:41:31;;;;;;;3.67;2.43;;;9.10;99.90;;;;;;4162467;28;20030;-71
2023/05/12 03:43:32;;;;;;;5.87;2.90;;;9.10;99.90;;;;;;4161439;28;20033;-59
2023/05/12 03:45:33;;;;;;;2.80;2.27;;;9.20;99.90;;;;;;4159288;28;20104;-60
2023/05/12 03:47:35;;;;;;;3.43;3.07;;;9.20;99.90;;;;;;4153150;28;20072;-71
2023/05/12 03:49:36;;;;;;;5.63;2.60;;;9.20;99.90;;;;;;4149242;28;20460;-77
2023/05/12 03:51:37;;;;;;;4.80;2.80;;;9.30;99.90;;;;;;4157283;28;20037;-75
2023/05/12 03:53:44;;;;;;;5.47;2.53;;;9.20;99.90;;;;;;4144987;28;20034;-76
2023/05/12 03:55:45;;;;;;;6.73;2.63;;;9.20;99.90;;;;;;4159533;28;20099;-70
2023/05/12 03:57:47;;;;;;;5.73;2.40;;;9.20;99.90;;;;;;4160870;28;20095;-74
2023/05/12 03:59:48;;;;;;;6.23;2.40;;;9.20;99.90;;;;;;4160714;28;20668;-74
2023/05/12 04:01:52;;;;;;;29.70;5.40;;;9.30;99.90;;;;;;4160678;28;20037;-70
2023/05/12 04:03:53;;;;;;;4.13;2.30;;;9.20;99.90;;;;;;4150508;28;20042;-73
2023/05/12 04:06:01;;;;;;;3.70;2.80;;;9.30;99.90;;;;;;4145193;28;20034;-60
2023/05/12 04:08:02;;;;;;;4.63;2.60;;;9.30;99.90;;;;;;4150414;28;20033;-60
2023/05/12 04:10:04;;;;;;;5.13;2.50;;;9.30;99.90;;;;;;4158863;28;20063;-71
2023/05/12 04:12:05;;;;;;;3.93;2.50;;;9.30;99.90;;;;;;4148981;28;20045;-73
2023/05/12 04:14:06;;;;;;;5.67;2.50;;;9.30;99.90;;;;;;4144318;28;20111;-67
2023/05/12 04:16:08;;;;;;;7.20;3.17;;;9.40;99.90;;;;;;4146781;28;20433;-61
2023/05/12 04:18:09;;;;;;;5.43;2.40;;;9.40;99.90;;;;;;4144815;28;20113;-62
2023/05/12 04:20:12;;;;;;;7.43;2.43;;;9.40;99.90;;;;;;4150139;28;20418;-69
2023/05/12 04:22:13;;;;;;;3.00;2.70;;;9.40;99.90;;;;;;4161525;28;20547;-65
2023/05/12 04:24:14;;;;;;;5.67;2.30;;;9.40;99.90;;;;;;4160273;28;20107;-76
2023/05/12 04:26:15;;;;;;;3.80;2.60;;;9.40;99.90;;;;;;4160156;28;20482;-74
2023/05/12 04:28:16;;;;;;;6.07;2.70;;;9.40;99.90;;;;;;4160816;28;20033;-62
2023/05/12 04:30:17;;;;;;;3.30;2.53;;;9.50;99.90;;;;;;4160896;28;20088;-74
2023/05/12 04:32:18;;;;;;;4.47;2.50;;;9.50;99.90;;;;;;4160185;28;20091;-72
2023/05/12 04:34:20;;;;;;;6.73;2.77;;;9.50;99.90;;;;;;4161810;28;20799;-75
2023/05/12 04:36:22;;;;;;;3.47;2.57;;;9.50;99.90;;;;;;4160554;28;20481;-74
2023/05/12 04:38:23;;;;;;;4.03;2.50;;;9.50;99.90;;;;;;4153116;28;20125;-62
2023/05/12 04:40:24;;;;;;;7.33;2.73;;;9.50;99.90;;;;;;4143867;28;20038;-70
2023/05/12 04:42:25;;;;;;;3.43;2.87;;;9.60;99.90;;;;;;4145358;28;20029;-76
2023/05/12 04:44:26;;;;;;;4.37;2.53;;;9.60;99.90;;;;;;4143499;28;20022;-65
2023/05/12 04:46:27;;;;;;;4.60;3.07;;;9.60;99.90;;;;;;4146539;28;20034;-73
2023/05/12 04:48:29;;;;;;;5.80;3.13;;;9.70;99.90;;;;;;4144681;28;20103;-74
2023/05/12 04:50:30;;;;;;;5.97;2.50;;;9.70;99.90;;;;;;4160717;28;20041;-69
2023/05/12 04:52:31;;;;;;;8.20;2.97;;;9.70;99.90;;;;;;4159516;28;20045;-73
2023/05/12 04:54:33;;;;;;;3.13;2.63;;;9.70;99.90;;;;;;4152387;28;20547;-67
2023/05/12 04:56:34;;;;;;;8.40;3.00;;;9.80;99.90;;;;;;4146782;28;20525;-72
2023/05/12 04:58:35;;;;;;;6.63;2.87;;;9.80;99.90;;;;;;4151726;28;20119;-75
2023/05/12 05:00:36;;;;;;;12.43;3.47;;;9.90;99.90;;;;;;4160065;28;20049;-75
2023/05/12 05:02:38;;;;;;;4.20;2.80;;;9.90;99.90;;;;;;4147991;28;20080;-72
2023/05/12 05:04:39;;;;;;;6.97;3.17;;;9.90;99.90;;;;;;4153310;28;20042;-62
2023/05/12 05:06:40;;;;;;;8.87;3.00;;;9.90;99.90;;;;;;4155436;28;20099;-75
2023/05/12 05:08:41;;;;;;;12.83;3.20;;;10.00;99.90;;;;;;4161199;28;20045;-66
2023/05/12 05:10:42;;;;;;;5.33;2.80;;;10.00;99.90;;;;;;4158796;28;20087;-70
2023/05/12 05:12:43;;;;;;;6.80;3.17;;;10.10;99.90;;;;;;4148418;28;20038;-67
2023/05/12 05:14:44;;;;;;;5.03;3.00;;;10.10;99.90;;;;;;4159002;28;20433;-70
2023/05/12 05:16:46;;;;;;;6.70;2.80;;;10.20;99.90;;;;;;4161140;28;20425;-72
2023/05/12 05:18:47;;;;;;;9.10;2.53;;;10.30;99.90;;;;;;4160498;28;20437;-62
2023/05/12 05:20:48;;;;;;;9.93;2.57;;;10.30;99.90;;;;;;4160940;28;20076;-73
2023/05/12 05:22:49;;;;;;;8.80;2.80;;;10.40;99.90;;;;;;4160072;28;20092;-67
2023/05/12 05:24:50;;;;;;;6.67;2.53;;;10.40;99.90;;;;;;4159544;28;20041;-73
2023/05/12 05:26:51;;;;;;;4.03;2.80;;;10.40;99.90;;;;;;4160880;28;20076;-70
2023/05/12 05:28:54;;;;;;;2.37;2.17;;;10.40;99.90;;;;;;4159910;28;20066;-70
2023/05/12 05:30:55;;;;;;;3.97;2.77;;;10.40;99.90;;;;;;4161027;28;20462;-67
2023/05/12 05:32:56;;;;;;;5.70;2.87;;;10.40;99.90;;;;;;4159813;28;20030;-62
2023/05/12 05:34:57;;;;;;;5.00;2.57;;;10.40;99.90;;;;;;4160985;28;21362;-67
2023/05/12 05:36:58;;;;;;;6.07;2.50;;;10.50;99.90;;;;;;4159772;28;20100;-62
2023/05/12 05:38:59;;;;;;;4.33;2.30;;;10.40;99.90;;;;;;4161435;28;20456;-70
2023/05/12 05:41:00;;;;;;;6.47;3.00;;;10.50;99.90;;;;;;4159714;28;20034;-66
2023/05/12 05:43:02;;;;;;;4.10;2.70;;;10.50;99.90;;;;;;4143842;28;20022;-65
2023/05/12 05:45:03;;;;;;;4.10;2.10;;;10.50;99.90;;;;;;4162475;28;20095;-66
2023/05/12 05:47:04;;;;;;;4.40;2.20;;;10.50;99.90;;;;;;4146790;28;20065;-72
2023/05/12 05:49:06;;;;;;;6.50;2.80;;;10.50;99.90;;;;;;4145089;28;20104;-71
2023/05/12 05:51:07;;;;;;;11.10;2.30;;;10.60;99.90;;;;;;4163643;28;20420;-72
2023/05/12 05:53:08;;;;;;;5.07;2.73;;;10.60;99.90;;;;;;4163050;28;20096;-65
2023/05/12 05:55:09;;;;;;;5.17;2.27;;;10.70;99.90;;;;;;4163015;28;20041;-62
2023/05/12 05:57:10;;;;;;;3.73;1.80;;;10.70;99.90;;;;;;4163123;28;20045;-65
2023/05/12 05:59:13;;;;;;;3.33;2.00;;;10.80;99.90;;;;;;4163027;28;20476;-67
2023/05/12 06:01:14;;;;;;;5.00;2.00;;;10.80;99.90;;;;;;4164330;28;20025;-72
2023/05/12 06:03:15;;;;;;;3.30;2.03;;;10.80;99.90;;;;;;4162634;28;20042;-63
2023/05/12 06:05:16;;;;;;;3.97;2.07;;;10.90;99.90;;;;;;4164170;28;20025;-74
2023/05/12 06:07:17;;;;;;;3.63;1.97;;;11.00;99.90;;;;;;4162842;28;20417;-72
2023/05/12 06:09:18;;;;;;;6.03;2.30;;;11.00;99.90;;;;;;4163376;28;20041;-69
2023/05/12 06:11:20;;;;;;;3.87;2.20;;;11.00;99.90;;;;;;4161744;28;20049;-70
2023/05/12 06:13:21;;;;;;;6.40;1.77;;;11.10;99.90;;;;;;4164104;28;20037;-61
2023/05/12 06:15:22;;;;;;;4.43;2.90;;;11.10;99.90;;;;;;4162138;28;20548;-74
2023/05/12 06:17:23;;;;;;;2.13;1.90;;;11.20;99.90;;;;;;4163498;28;20084;-74
2023/05/12 06:19:24;;;;;;;2.67;1.70;;;11.10;99.90;;;;;;4163231;28;20033;-67
2023/05/12 06:21:25;;;;;;;4.10;1.90;;;11.20;99.90;;;;;;4163420;28;20331;-74
2023/05/12 06:23:26;;;;;;;5.10;2.07;;;11.20;99.90;;;;;;4162606;28;20033;-75
2023/05/12 06:25:27;;;;;;;3.30;2.00;;;11.20;99.90;;;;;;4162826;28;20120;-72
2023/05/12 06:27:29;;;;;;;3.90;2.07;;;11.20;99.90;;;;;;4163445;28;20021;-72
2023/05/12 06:29:30;;;;;;;1.87;1.77;;;11.20;99.90;;;;;;4162548;28;20033;-63
2023/05/12 06:31:31;;;;;;;8.10;2.73;;;11.30;99.90;;;;;;4163638;28;20448;-65
2023/05/12 06:33:32;;;;;;;3.77;2.30;;;11.30;99.90;;;;;;4161920;28;20103;-71
2023/05/12 06:35:33;;;;;;;2.23;2.00;;;11.40;99.90;;;;;;4163706;28;20029;-64
2023/05/12 06:37:34;;;;;;;4.20;2.17;;;11.40;99.90;;;;;;4162613;28;20079;-62
2023/05/12 06:39:35;;;;;;;5.10;2.77;;;11.40;99.90;;;;;;4163525;28;20041;-71
2023/05/12 06:41:36;;;;;;;5.67;1.90;;;11.50;99.90;;;;;;4162204;28;20092;-72
2023/05/12 06:43:38;;;;;;;5.13;1.70;;;11.60;99.90;;;;;;4163687;28;20501;-74
2023/05/12 06:45:39;;;;;;;4.37;1.70;;;11.60;99.90;;;;;;4161700;28;20087;-75
2023/05/12 06:47:40;;;;;;;8.53;2.30;;;11.60;99.90;;;;;;4163094;28;20034;-60
2023/05/12 06:49:41;;;;;;;3.90;2.13;;;11.70;99.90;;;;;;4161882;28;20038;-64
2023/05/12 06:51:42;;;;;;;4.43;2.20;;;11.70;99.90;;;;;;4162792;28;20083;-63
2023/05/12 06:53:43;;;;;;;7.13;2.27;;;11.80;99.90;;;;;;4162592;28;20116;-61
2023/05/12 06:55:45;;;;;;;2.13;1.93;;;11.80;99.90;;;;;;4162348;28;20079;-73
2023/05/12 06:57:47;;;;;;;3.27;1.77;;;11.90;99.90;;;;;;4162116;28;20041;-61
2023/05/12 06:59:48;;;;;;;3.97;1.70;;;12.00;99.90;;;;;;4162122;28;20037;-61
2023/05/12 07:01:49;;;;;;;2.90;1.90;;;12.00;99.90;;;;;;4162644;28;20037;-61
2023/05/12 07:03:50;;;;;;;3.50;1.87;;;12.10;99.90;;;;;;4161866;28;20432;-71
2023/05/12 07:05:51;;;;;;;4.33;1.90;;;12.10;99.90;;;;;;4144899;28;20532;-66
2023/05/12 07:07:52;;;;;;;4.37;1.90;;;12.10;99.90;;;;;;4160999;28;20041;-72
2023/05/12 07:09:53;;;;;;;3.23;1.57;;;12.20;99.90;;;;;;4163146;28;20033;-62
2023/05/12 07:11:54;;;;;;;6.93;2.13;;;12.20;99.90;;;;;;4161673;28;20088;-77
2023/05/12 07:13:56;;;;;;;3.13;1.83;;;12.20;99.90;;;;;;4163053;28;20029;-61
2023/05/12 07:15:57;;;;;;;3.50;1.83;;;12.20;99.90;;;;;;4161632;28;20029;-75
2023/05/12 07:17:58;;;;;;;1.77;1.67;;;12.10;99.90;;;;;;4163306;28;20029;-62
2023/05/12 07:19:59;;;;;;;3.97;1.77;;;12.10;99.90;;;;;;4161912;28;20486;-69
2023/05/12 07:22:00;;;;;;;7.10;2.17;;;12.20;99.90;;;;;;4161674;28;20033;-71
2023/05/12 07:24:02;;;;;;;6.77;1.93;;;12.10;99.90;;;;;;4161963;28;20033;-62
2023/05/12 07:26:05;;;;;;;4.33;1.50;;;12.20;99.90;;;;;;4161871;28;20076;-62
2023/05/12 07:28:06;;;;;;;1.93;1.40;;;12.20;99.90;;;;;;4162332;28;20026;-69
2023/05/12 07:30:07;;;;;;;2.93;1.80;;;12.20;99.90;;;;;;4161349;28;20038;-62
2023/05/12 07:32:09;;;;;;;5.53;1.93;;;12.20;99.90;;;;;;4162447;28;20444;-76
2023/05/12 07:34:10;;;;;;;2.60;1.60;;;12.30;99.90;;;;;;4161456;28;20033;-73
2023/05/12 07:36:11;;;;;;;2.90;1.93;;;12.40;99.90;;;;;;4161892;28;20050;-76
2023/05/12 07:38:14;;;;;;;4.60;1.63;;;12.40;99.80;;;;;;4143849;28;20046;-64
2023/05/12 07:40:15;;;;;;;3.20;1.60;;;12.50;99.40;;;;;;4162496;28;20033;-75
2023/05/12 07:42:16;;;;;;;3.03;1.60;;;12.60;99.30;;;;;;4161108;28;20080;-60
2023/05/12 07:44:17;;;;;;;1.30;1.20;;;12.60;99.00;;;;;;4162511;28;20083;-61
2023/05/12 07:46:18;;;;;;;4.37;2.00;;;12.70;98.80;;;;;;4161344;28;20021;-66
2023/05/12 07:48:19;;;;;;;2.47;1.60;;;12.80;98.50;;;;;;4162680;28;20448;-74
2023/05/12 07:50:20;;;;;;;8.30;1.83;;;12.90;98.70;;;;;;4161530;28;20038;-76
2023/05/12 07:52:23;;;;;;;2.20;1.33;;;12.90;98.60;;;;;;4161076;28;20049;-74
2023/05/12 07:54:24;;;;;;;5.50;1.23;;;13.10;98.10;;;;;;4161479;28;20033;-61
2023/05/12 07:56:25;;;;;;;5.00;1.80;;;13.10;97.80;;;;;;4161066;28;20444;-76
2023/05/12 07:58:26;;;;;;;1.47;1.27;;;13.10;97.40;;;;;;4161754;28;20425;-76
2023/05/12 08:00:27;;;;;;;1.70;1.00;;;13.20;97.40;;;;;;4161104;28;20497;-62
2023/05/12 08:02:28;;;;;;;2.50;1.20;;;13.20;96.70;;;;;;4162226;28;20026;-65
2023/05/12 08:04:30;;;;;;;2.10;1.47;;;13.20;96.10;;;;;;4161129;28;20033;-68
2023/05/12 08:06:32;;;;;;;2.90;1.60;;;13.20;95.90;;;;;;4161300;28;20471;-63
2023/05/12 08:08:33;;;;;;;5.13;1.17;;;13.20;95.70;;;;;;4161018;28;20022;-73
2023/05/12 08:10:35;;;;;;;2.03;1.17;;;13.30;95.60;;;;;;4162080;28;20087;-72
2023/05/12 08:12:36;;;;;;;2.50;1.03;;;13.40;95.50;;;;;;4160736;28;20485;-64
2023/05/12 08:14:37;;;;;;;1.93;1.10;;;13.50;95.60;;;;;;4162080;28;20099;-76
2023/05/12 08:16:39;;;;;;;2.47;1.27;;;13.70;95.20;;;;;;4160363;28;20543;-62
2023/05/12 08:18:40;;;;;;;1.47;1.20;;;13.70;95.00;;;;;;4161625;28;20037;-62
2023/05/12 08:20:41;;;;;;;5.13;1.23;;;13.90;94.90;;;;;;4160897;28;20450;-62
2023/05/12 08:22:43;;;;;;;1.93;1.30;;;14.00;94.90;;;;;;4160950;28;20033;-65
2023/05/12 08:24:45;;;;;;;1.60;1.00;;;14.00;94.60;;;;;;4160463;28;20108;-67
2023/05/12 08:26:46;;;;;;;3.63;1.17;;;14.00;93.80;;;;;;4160927;28;20026;-61
2023/05/12 08:28:47;;;;;;;4.63;1.13;;;13.90;93.20;;;;;;4161297;28;20009;-67
2023/05/12 08:30:48;;;;;;;1.40;1.00;;;13.70;92.70;;;;;;4160304;28;20072;-65
2023/05/12 08:32:49;;;;;;;1.30;1.00;;;13.60;92.20;;;;;;4161147;28;20034;-62
2023/05/12 08:34:51;;;;;;;4.33;1.03;;;13.70;92.50;;;;;;4160330;28;20467;-63
2023/05/12 08:36:53;;;;;;;4.33;1.00;;;13.70;92.60;;;;;;4161164;28;20527;-66
2023/05/12 08:38:55;;;;;;;1.33;1.00;;;13.70;92.70;;;;;;4160495;28;20738;-73
2023/05/12 08:41:03;;;;;;;3.13;1.00;;;13.50;92.70;;;;;;4161475;28;20041;-61
2023/05/12 08:43:10;;;;;;;1.73;1.10;;;13.50;93.10;;;;;;4160543;28;20551;-67
2023/05/12 08:45:11;;;;;;;2.23;1.00;;;13.50;92.70;;;;;;4160806;28;20489;-63
2023/05/12 08:47:15;;;;;;;1.20;1.10;;;13.40;92.90;;;;;;4160524;28;20025;-72
2023/05/12 08:49:19;;;;;;;1.73;1.17;;;13.50;93.00;;;;;;4161552;28;20053;-70
2023/05/12 08:51:23;;;;;;;4.10;1.30;;;13.50;92.70;;;;;;4160407;28;20075;-70
2023/05/12 08:53:26;;;;;;;2.60;1.10;;;13.40;93.10;;;;;;4161488;28;20041;-62
2023/05/12 08:55:28;;;;;;;3.27;1.23;;;13.40;93.50;;;;;;4160230;28;20029;-66
2023/05/12 08:57:30;;;;;;;1.30;1.20;;;13.40;93.70;;;;;;4160878;28;20500;-64
2023/05/12 08:59:31;;;;;;;3.23;1.20;;;13.50;93.60;;;;;;4160511;28;20033;-60
2023/05/12 09:01:36;;;;;;;5.80;1.33;;;13.50;93.50;;;;;;4160233;28;20126;-64
2023/05/12 09:03:37;;;;;;;3.40;1.40;;;13.50;93.60;;;;;;4159955;28;20041;-62
2023/05/12 09:05:40;;;;;;;9.93;1.50;;;13.40;93.40;;;;;;4159991;28;20505;-63
2023/05/12 09:07:46;;;;;;;6.13;1.53;;;13.40;93.70;;;;;;4160696;28;20083;-62
2023/05/12 09:09:51;;;;;;;7.13;1.40;;;13.50;93.70;;;;;;4142276;28;20037;-62
2023/05/12 09:11:55;;;;;;;1.50;1.00;;;13.40;93.60;;;;;;4161181;28;20456;-70
2023/05/12 09:14:08;;;;;;;2.57;1.17;;;13.40;93.60;;;;;;4160073;28;20072;-61
2023/05/12 09:16:11;;;;;;;4.80;1.40;;;13.40;93.70;;;;;;4161012;28;20029;-62
2023/05/12 09:18:12;;;;;;;4.47;1.23;;;13.40;93.90;;;;;;4145329;28;20112;-62
2023/05/12 09:20:15;;;;;;;2.23;1.10;;;13.30;93.90;;;;;;4164555;28;20033;-73
2023/05/12 09:22:18;;;;;;;2.50;1.03;;;13.30;93.60;;;;;;4163398;28;20088;-76
2023/05/12 09:24:21;;;;;;;4.37;1.20;;;13.30;93.50;;;;;;4164704;28;20021;-74
2023/05/12 09:26:23;;;;;;;4.00;1.20;;;13.30;93.60;;;;;;4163328;28;20030;-77
2023/05/12 09:28:34;;;;;;;3.53;1.70;;;13.30;93.80;;;;;;4164164;28;20116;-61
2023/05/12 09:30:37;;;;;;;3.37;1.83;;;13.30;94.30;;;;;;4163295;28;20044;-71
2023/05/12 09:32:38;;;;;;;2.63;1.00;;;13.30;94.30;;;;;;4164436;28;20385;-76
2023/05/12 09:34:39;;;;;;;3.27;1.70;;;13.30;94.00;;;;;;4162454;28;20466;-76
2023/05/12 09:36:40;;;;;;;6.00;2.40;;;13.30;94.20;;;;;;4164382;28;20421;-76
2023/05/12 09:38:41;;;;;;;5.27;1.40;;;13.30;94.50;;;;;;4163225;28;20051;-76
2023/05/12 09:40:44;;;;;;;3.87;1.50;;;13.30;94.50;;;;;;4163332;28;20091;-62
2023/05/12 09:42:45;;;;;;;4.57;1.63;;;13.30;94.60;;;;;;4163006;28;20068;-73
2023/05/12 09:44:46;;;;;;;4.30;1.00;;;13.30;94.70;;;;;;4163356;28;20452;-75
2023/05/12 09:46:48;;;;;;;1.00;0.80;;;13.20;93.80;;;;;;4163474;28;20018;-62
2023/05/12 09:48:49;;;;;;;3.20;0.70;;;13.30;92.80;;;;;;4162804;28;20095;-62
2023/05/12 09:50:51;;;;;;;2.83;1.03;;;13.30;92.90;;;;;;4163905;28;20385;-61
2023/05/12 09:52:54;;;;;;;1.83;0.60;;;13.30;92.50;;;;;;4162777;28;20547;-61
2023/05/12 09:54:55;;;;;;;1.07;0.60;;;13.30;91.60;;;;;;4163952;28;20041;-62
2023/05/12 09:57:02;;;;;;;3.00;0.83;;;13.30;90.90;;;;;;4162454;28;20041;-72
2023/05/12 09:59:04;;;;;;;4.07;1.23;;;13.20;90.80;;;;;;4164077;28;20182;-61
2023/05/12 10:01:06;;;;;;;1.73;0.90;;;13.10;91.20;;;;;;4163109;28;20030;-71
2023/05/12 10:03:12;;;;;;;2.57;0.87;;;13.20;91.60;;;;;;4163396;28;20037;-72
2023/05/12 10:05:15;;;;;;;2.13;0.67;;;13.20;91.60;;;;;;4163047;28;20042;-61
2023/05/12 10:07:21;;;;;;;1.13;0.73;;;13.20;91.40;;;;;;4163649;28;20037;-75
2023/05/12 10:09:27;;;;;;;4.90;0.60;;;13.20;91.20;;;;;;4162599;28;20477;-62
2023/05/12 10:11:29;;;;;;;1.53;0.80;;;13.20;91.40;;;;;;4163730;28;20436;-61
2023/05/12 10:13:31;;;;;;;4.20;1.00;;;13.20;91.60;;;;;;4162596;28;20064;-61
2023/05/12 10:15:33;;;;;;;2.97;0.93;;;13.20;92.00;;;;;;4163811;28;20531;-63
2023/05/12 10:17:36;;;;;;;5.70;0.90;;;13.10;92.90;;;;;;4162874;28;20424;-61
2023/05/12 10:19:39;;;;;;;1.60;0.93;;;13.10;93.40;;;;;;4163974;28;20021;-75
2023/05/12 10:21:45;;;;;;;2.30;0.67;;;12.90;93.70;;;;;;4162889;28;20021;-69
2023/05/12 10:23:47;;;;;;;2.03;0.83;;;12.90;94.20;;;;;;4163263;28;20370;-61
2023/05/12 10:25:48;;;;;;;3.13;1.10;;;12.80;94.70;;;;;;4163147;28;20417;-61
2023/05/12 10:27:51;;;;;;;2.60;1.30;;;12.80;95.00;;;;;;4163041;28;20025;-61
2023/05/12 10:29:54;;;;;;;1.77;1.00;;;12.60;95.20;;;;;;4162598;28;20068;-64
2023/05/12 10:31:59;;;;;;;3.27;1.43;;;12.60;95.20;;;;;;4162454;28;20046;-62
2023/05/12 10:34:02;;;;;;;1.10;1.00;;;12.40;95.70;;;;;;4163107;28;20178;-75
2023/05/12 10:36:03;;;;;;;2.37;0.80;;;12.40;96.10;;;;;;4162597;28;20029;-75
2023/05/12 10:38:14;;;;;;;2.30;0.90;;;12.30;95.80;;;;;;4163594;28;20029;-76
2023/05/12 10:40:25;;;;;;;;;;;12.30;95.90;;;;;;4162953;28;20037;-73